Aeroporto :
LOGIN :

Iscrizione | Disclaimer

   EN    FR    IT 

 










Sommario :    VFR   VFR Marginale   IFR   IFR Intensivo   IFR Molto Intensivo
Visibilità : 
Base nubi : 
>= 8 km
>= 3000ft
5 / 8 km
1000 / 3000 ft
1500m / 5 km
500 / 1000 ft
800 / 1500m
200 / 500 ft
< 800m
< 200 ft
Simboli :   Temporali  Nebbia  Neve Forte  Precipitazioni Forti  Vento > 20 kt
SIGMETs :   Varie  Temporali  Ghiacco  Turbolenza  Onda orograficha  Ceneri Vulcaniche






- Altitudine del aeroporto : 209 ft
- Codice IATA : CLY


LFKC - Calvi

ULTIMO METAR :
  • 020700Z AUTO 20013KT 9999 FEW035 12/07 Q1009 TEMPO 21015G25KT

METARs OBSOLETI :
  • 020630Z AUTO 20013KT 9999 SCT036 SCT046 BKN054 12/07 Q1009 TEMPO 21015G25KT
  • 020600Z AUTO 21013KT 9999 FEW031 12/07 Q1009 TEMPO 21015G25KT
  • 020530Z AUTO 20013KT 9999 FEW032 SCT049 BKN056 12/07 Q1009 TEMPO 21015G25KT
  • 020500Z AUTO 20012KT 9999 FEW035 BKN044 BKN052 12/07 Q1009 TEMPO 21015G25KT
  • 020430Z AUTO 20013KT 9999 FEW041 12/07 Q1009 TEMPO 21015G25KT
  • 012100Z AUTO 18009KT 9999 FEW022 10/09 Q1006
  • 020400Z AUTO 20013KT 9999 FEW036 12/06 Q1008 TEMPO 21015G25KT
  • 020330Z AUTO 20013KT 9999 SCT034 SCT040 12/07 Q1008 TEMPO 21015G25KT
  • 020300Z AUTO 20010KT 180V250 9999 FEW040 12/06 Q1008 TEMPO 21015G25KT
  • 020230Z AUTO 20011KT 170V240 9999 FEW034 12/06 Q1008
  • 020200Z AUTO VRB05KT 9999 FEW028 SCT035 13/07 Q1008

TAF TAF LFKC
Valido dal 02 a 03 ore il 03 a 03 ore UTC


020200Z 0203/0303 21012KT 9999 SCT020 TX15/0211Z TN08/0205Z
TEMPO 0203/0214 21015G25KT
ATIS : +33 4 95 65 82 49



MetMap, La meteo Aeronautica in un colpo d'occhio ! - Copyright ORBIFLY Dicembre 2007 - Disclaimer

ORBIFLY MET'MAP TEAM :

Programmazione e sviluppo : Alexandra Zaïnal
Concezione : Baudouin d'Aumeries
Supporto tecnico e logistico : Manuel Goepfert
Aiuto : Marc-Olivier Méhu
Aiuto per la traduzione : Arnaldo La Scala




FONTI E CREDITI :

   NOAA